Terminal Aerodrome Forecast
Issued by NWS

Home | Current Version | Previous Version | Text Only | Print | Product List | Glossary On
Versions: 1 2 3 4 5 6 7 8 9 10 11 12 13
000
FTUS44 KMOB 220538
TAFBFM
TAF
KBFM 220538Z 2206/2306 10006KT P6SM FEW080
     FM221300 11009KT P6SM VCTS SCT030CB BKN050
     FM221700 13011KT 5SM TSRA BKN030CB OVC080=

USA.gov is the U.S. government's official web portal to all federal, state and local government web resources and services.